Time;durP1;ratioP1;P1;durP2;ratioP2;P2;SDS_P1;SDS_P2;PMS_P1;PMS_P2;Temp;Humidity;BMP_temperature;BMP_pressure;BME280_temperature;BME280_humidity;BME280_pressure;Samples;Min_cycle;Max_cycle;Signal;HPM_P1;HPM_P2
2021/07/28 00:00:25;;;;;;;35.17;31.77;;;;;;;19.47;100.00;98861.31;2089455;28;20518;-75
2021/07/28 00:01:27;;;;;;;36.10;32.60;;;;;;;19.44;100.00;98862.00;2088634;28;20735;-76
2021/07/28 00:02:28;;;;;;;35.10;31.77;;;;;;;19.40;100.00;98851.13;2088673;28;20805;-76
2021/07/28 00:03:29;;;;;;;36.87;33.17;;;;;;;19.42;100.00;98850.75;2089486;28;20445;-76
2021/07/28 00:04:32;;;;;;;36.23;32.73;;;;;;;19.46;100.00;98846.22;2089560;28;20446;-76
2021/07/28 00:05:33;;;;;;;36.63;33.27;;;;;;;19.46;100.00;98846.22;2089477;28;20218;-76
2021/07/28 00:06:34;;;;;;;38.97;33.40;;;;;;;19.41;100.00;98849.19;2089554;28;20540;-76
2021/07/28 00:07:35;;;;;;;36.17;32.53;;;;;;;19.38;100.00;98850.72;2089522;28;20230;-76
2021/07/28 00:08:37;;;;;;;35.13;31.83;;;;;;;19.35;100.00;98853.34;2088648;28;20465;-76
2021/07/28 00:09:37;;;;;;;36.43;33.10;;;;;;;19.32;100.00;98849.44;2088326;28;20230;-75
2021/07/28 00:10:39;;;;;;;36.83;33.23;;;;;;;19.27;100.00;98847.00;2089460;28;20484;-75
2021/07/28 00:11:39;;;;;;;36.00;32.73;;;;;;;19.25;100.00;98854.72;2089298;28;20317;-76
2021/07/28 00:12:41;;;;;;;36.30;33.10;;;;;;;19.24;100.00;98846.97;2089396;28;20450;-76
2021/07/28 00:13:44;;;;;;;36.87;33.57;;;;;;;19.28;100.00;98842.38;2089406;28;20669;-76
2021/07/28 00:14:45;;;;;;;34.80;31.63;;;;;;;19.28;100.00;98840.44;2089435;28;20792;-76
2021/07/28 00:15:46;;;;;;;35.97;32.80;;;;;;;19.34;100.00;98839.03;2089482;28;20460;-76
2021/07/28 00:16:49;;;;;;;36.77;33.37;;;;;;;19.37;100.00;98842.94;2089450;28;20438;-76
2021/07/28 00:17:51;;;;;;;36.90;33.47;;;;;;;19.44;100.00;98832.25;2089325;28;20237;-76
2021/07/28 00:19:02;;;;;;;34.90;31.70;;;;;;;19.54;100.00;98833.56;2088848;28;20485;-75
2021/07/28 00:20:07;;;;;;;35.70;32.33;;;;;;;19.63;100.00;98826.78;2088546;28;20453;-76
2021/07/28 00:23:47;;;;;;;36.10;32.90;;;;;;;19.63;100.00;98821.38;2088432;28;20434;-76
2021/07/28 00:24:47;;;;;;;36.63;32.77;;;;;;;19.54;100.00;98822.72;2088243;28;20469;-76
2021/07/28 00:25:49;;;;;;;36.27;32.87;;;;;;;19.44;100.00;98819.50;2088676;28;20459;-76
2021/07/28 00:26:50;;;;;;;37.63;34.33;;;;;;;19.37;100.00;98824.00;2089326;28;20581;-76
2021/07/28 00:27:51;;;;;;;34.83;31.47;;;;;;;19.31;100.00;98823.53;2088564;28;20552;-76
2021/07/28 00:28:52;;;;;;;35.87;32.57;;;;;;;19.26;100.00;98826.50;2088130;28;20591;-75
2021/07/28 00:29:53;;;;;;;36.60;33.10;;;;;;;19.18;100.00;98822.91;2080518;28;20472;-76
2021/07/28 00:30:54;;;;;;;36.13;32.57;;;;;;;19.13;100.00;98820.50;2088596;28;20231;-76
2021/07/28 00:31:58;;;;;;;36.83;33.50;;;;;;;19.09;100.00;98825.03;2089272;28;20449;-76
2021/07/28 00:32:58;;;;;;;38.10;34.40;;;;;;;19.06;100.00;98828.47;2088449;28;20219;-76
2021/07/28 00:34:00;;;;;;;35.47;31.63;;;;;;;19.04;100.00;98830.75;2088396;28;20460;-76
2021/07/28 00:35:00;;;;;;;34.43;31.10;;;;;;;19.10;100.00;98831.22;2088281;28;20230;-76
2021/07/28 00:36:02;;;;;;;37.73;34.10;;;;;;;19.05;100.00;98829.63;2088589;28;20449;-76
2021/07/28 00:37:03;;;;;;;33.97;30.97;;;;;;;19.06;100.00;98833.88;2088360;28;20227;-76
2021/07/28 00:38:05;;;;;;;34.87;31.47;;;;;;;18.99;100.00;98831.03;2088448;28;20445;-76
2021/07/28 00:39:06;;;;;;;36.77;32.53;;;;;;;19.03;100.00;98833.84;2089145;28;20978;-76
2021/07/28 00:40:08;;;;;;;35.00;31.57;;;;;;;19.00;100.00;98831.81;2088794;28;20804;-75
2021/07/28 00:41:09;;;;;;;35.63;32.13;;;;;;;19.01;100.00;98830.69;2089074;28;20577;-76
2021/07/28 00:42:11;;;;;;;41.37;32.43;;;;;;;18.95;100.00;98830.19;2088515;28;20461;-76
2021/07/28 00:43:13;;;;;;;36.70;33.10;;;;;;;18.95;100.00;98832.13;2080366;28;20234;-76
2021/07/28 00:44:15;;;;;;;35.97;32.13;;;;;;;18.97;100.00;98835.25;2080307;28;20453;-76
2021/07/28 00:45:16;;;;;;;36.17;31.70;;;;;;;18.94;100.00;98831.34;2088476;28;20454;-76
2021/07/28 00:46:17;;;;;;;36.67;33.07;;;;;;;18.92;100.00;98825.50;2089189;28;20964;-76
2021/07/28 00:47:19;;;;;;;35.73;32.40;;;;;;;18.88;100.00;98830.84;2088865;28;20215;-76
2021/07/28 00:48:24;;;;;;;35.03;31.70;;;;;;;18.86;100.00;98832.34;2088665;28;20465;-76
2021/07/28 00:49:24;;;;;;;35.53;32.33;;;;;;;18.82;100.00;98826.06;2088056;28;20449;-76
2021/07/28 00:50:26;;;;;;;36.13;32.53;;;;;;;18.81;100.00;98829.91;2088304;28;20524;-76
2021/07/28 00:51:29;;;;;;;34.70;31.47;;;;;;;18.79;100.00;98827.56;2088443;28;20618;-76
2021/07/28 00:52:32;;;;;;;41.53;35.27;;;;;;;18.78;100.00;98820.59;2088453;28;20454;-76
2021/07/28 00:53:33;;;;;;;37.63;34.23;;;;;;;18.79;100.00;98827.56;2088311;28;20495;-76
2021/07/28 00:54:35;;;;;;;37.17;33.57;;;;;;;18.81;100.00;98825.28;2088308;28;21039;-76
2021/07/28 00:55:35;;;;;;;38.40;34.87;;;;;;;18.81;100.00;98827.22;2089124;28;20226;-76
2021/07/28 00:56:37;;;;;;;39.00;35.30;;;;;;;18.80;100.00;98822.94;2089073;28;20437;-77
2021/07/28 00:57:38;;;;;;;38.13;34.33;;;;;;;18.82;100.00;98821.44;2088734;28;20250;-76
2021/07/28 00:58:42;;;;;;;36.40;32.87;;;;;;;18.80;100.00;98817.53;2088671;28;20473;-76
2021/07/28 00:59:44;;;;;;;36.70;33.43;;;;;;;18.81;100.00;98819.88;2088532;28;20222;-76
2021/07/28 01:00:46;;;;;;;37.90;34.40;;;;;;;18.80;100.00;98818.31;2088297;28;20458;-76
2021/07/28 01:01:46;;;;;;;37.73;34.07;;;;;;;18.77;100.00;98819.03;2080307;28;20489;-76
2021/07/28 01:02:49;;;;;;;35.73;32.33;;;;;;;18.77;100.00;98823.66;2088378;28;20461;-76
2021/07/28 01:03:50;;;;;;;37.87;33.93;;;;;;;18.80;100.00;98825.66;2088081;28;20223;-76
2021/07/28 01:04:52;;;;;;;37.23;33.53;;;;;;;18.84;100.00;98818.38;2079956;28;20996;-76
2021/07/28 01:05:55;;;;;;;35.73;32.43;;;;;;;18.85;100.00;98817.25;2079692;28;20250;-75
2021/07/28 01:06:57;;;;;;;37.90;34.33;;;;;;;18.85;100.00;98819.94;2088380;28;20830;-76
2021/07/28 01:07:58;;;;;;;36.00;32.77;;;;;;;18.87;100.00;98813.06;2088808;28;20484;-76
2021/07/28 01:09:00;;;;;;;36.13;32.30;;;;;;;18.82;100.00;98809.84;2081675;28;20467;-76
2021/07/28 01:10:01;;;;;;;36.87;33.23;;;;;;;18.79;100.00;98799.75;2096173;28;20230;-76
2021/07/28 01:11:04;;;;;;;35.90;32.40;;;;;;;18.74;100.00;98808.94;2093388;28;20520;-76
2021/07/28 01:12:05;;;;;;;35.03;31.70;;;;;;;18.70;100.00;98807.31;2088937;28;20215;-76
2021/07/28 01:13:08;;;;;;;36.00;32.63;;;;;;;18.71;100.00;98806.16;2088966;28;20804;-76
2021/07/28 01:14:08;;;;;;;35.93;32.57;;;;;;;18.67;100.00;98802.59;2087827;28;20450;-75
2021/07/28 01:15:12;;;;;;;36.17;32.83;;;;;;;18.68;100.00;98804.16;2088411;28;20451;-76
2021/07/28 01:16:18;;;;;;;37.47;33.70;;;;;;;18.64;100.00;98801.34;2088915;28;20275;-76
2021/07/28 01:17:19;;;;;;;36.63;33.07;;;;;;;18.64;100.00;98801.34;2089058;28;20529;-76
2021/07/28 01:18:22;;;;;;;35.77;32.20;;;;;;;18.61;100.00;98808.25;2088938;28;20453;-75
2021/07/28 01:19:28;;;;;;;36.23;32.77;;;;;;;18.59;100.00;98813.25;2088488;28;20997;-75
2021/07/28 01:20:34;;;;;;;35.80;32.53;;;;;;;18.58;100.00;98814.34;2088503;28;20448;-76
2021/07/28 01:21:35;;;;;;;37.40;33.70;;;;;;;18.62;100.00;98812.53;2088236;28;20479;-76
2021/07/28 01:22:36;;;;;;;36.60;33.10;;;;;;;18.72;100.00;98813.13;2088984;28;20460;-76
2021/07/28 01:23:39;;;;;;;37.43;32.87;;;;;;;18.83;100.00;98822.22;2087801;28;20456;-74
2021/07/28 01:24:40;;;;;;;35.27;31.77;;;;;;;18.89;100.00;98816.19;2088210;28;20249;-75
2021/07/28 01:25:42;;;;;;;36.67;33.10;;;;;;;18.93;100.00;98818.94;2087882;28;20458;-75
2021/07/28 01:26:44;;;;;;;36.50;31.50;;;;;;;18.99;100.00;98809.41;2088250;28;20218;-76
2021/07/28 01:27:45;;;;;;;36.47;32.90;;;;;;;18.99;100.00;98809.41;2088822;28;20445;-75
2021/07/28 01:28:46;;;;;;;35.87;32.47;;;;;;;18.98;100.00;98804.38;2087987;28;20978;-75
2021/07/28 01:29:48;;;;;;;34.97;31.70;;;;;;;18.93;100.00;98810.81;2080063;28;20538;-75
2021/07/28 01:30:58;;;;;;;35.60;32.13;;;;;;;18.92;100.00;98818.16;2088251;28;20465;-75
2021/07/28 01:31:59;;;;;;;37.77;33.97;;;;;;;18.88;100.00;98808.44;2088374;28;20840;-75
2021/07/28 01:33:01;;;;;;;35.40;32.20;;;;;;;18.88;100.00;98801.09;2088760;28;20471;-75
2021/07/28 01:34:03;;;;;;;35.93;32.60;;;;;;;18.87;100.00;98813.06;2088815;28;20441;-75
2021/07/28 01:35:06;;;;;;;36.87;33.03;;;;;;;18.87;100.00;98810.34;2087812;28;20441;-75
2021/07/28 01:36:11;;;;;;;34.50;30.87;;;;;;;18.87;100.00;98796.84;2087733;28;20892;-74
2021/07/28 01:37:14;;;;;;;34.70;31.47;;;;;;;18.83;100.00;98797.91;2088328;28;20449;-75
2021/07/28 01:38:22;;;;;;;35.23;31.97;;;;;;;18.78;100.00;98801.69;2088125;28;20453;-75
2021/07/28 01:39:24;;;;;;;35.07;31.70;;;;;;;18.75;100.00;98793.50;2087453;28;20481;-75
2021/07/28 01:40:25;;;;;;;37.10;33.50;;;;;;;18.72;100.00;98799.63;2087883;28;20536;-75
2021/07/28 01:41:26;;;;;;;33.93;30.93;;;;;;;18.68;100.00;98793.34;2088651;28;20556;-74
2021/07/28 01:42:28;;;;;;;36.30;32.47;;;;;;;18.67;100.00;98797.19;2088769;28;20446;-75
2021/07/28 01:43:29;;;;;;;37.03;33.63;;;;;;;18.64;100.00;98794.03;2088740;28;20301;-75
2021/07/28 01:44:32;;;;;;;36.20;32.27;;;;;;;18.67;100.00;98800.66;2088752;28;20454;-75
2021/07/28 01:45:33;;;;;;;37.33;33.63;;;;;;;18.66;100.00;98801.81;2088833;28;20502;-75
2021/07/28 01:46:35;;;;;;;36.40;33.17;;;;;;;18.74;100.00;98798.09;2088549;28;20453;-75
2021/07/28 01:47:35;;;;;;;36.00;32.23;;;;;;;18.91;100.00;98799.59;2088803;28;20242;-75
2021/07/28 01:48:37;;;;;;;36.47;32.87;;;;;;;18.89;100.00;98791.84;2088863;28;20450;-75
2021/07/28 01:49:37;;;;;;;34.80;31.53;;;;;;;18.87;100.00;98787.94;2088348;28;20249;-74
2021/07/28 01:50:39;;;;;;;35.40;32.13;;;;;;;18.85;100.00;98792.91;2087877;28;20461;-74
2021/07/28 01:51:42;;;;;;;34.63;31.17;;;;;;;18.82;100.00;98789.00;2088113;28;20297;-74
2021/07/28 01:52:43;;;;;;;35.27;31.77;;;;;;;18.88;100.00;98787.59;2088739;28;20462;-75
2021/07/28 01:53:44;;;;;;;35.13;31.80;;;;;;;18.93;100.00;98791.91;2088765;28;20480;-75
2021/07/28 01:54:47;;;;;;;35.87;32.13;;;;;;;18.90;100.00;98784.50;2087790;28;20449;-75
2021/07/28 01:55:48;;;;;;;35.87;32.57;;;;;;;18.93;100.00;98787.28;2087974;28;20284;-75
2021/07/28 01:56:50;;;;;;;34.07;30.97;;;;;;;18.99;100.00;98787.00;2088851;28;20442;-75
2021/07/28 01:57:50;;;;;;;34.90;31.30;;;;;;;18.89;100.00;98786.44;2088662;28;20457;-75
2021/07/28 01:58:55;;;;;;;32.57;29.33;;;;;;;18.88;100.00;98794.91;2088744;28;20528;-75
2021/07/28 02:00:00;;;;;;;34.10;30.60;;;;;;;18.84;100.00;98783.22;2088419;28;20661;-75
2021/07/28 02:01:01;;;;;;;35.50;30.73;;;;;;;18.74;100.00;98776.50;2087768;28;20528;-75
2021/07/28 02:02:02;;;;;;;33.10;30.20;;;;;;;18.68;100.00;98779.81;2079623;28;20879;-75
2021/07/28 02:03:04;;;;;;;34.63;31.17;;;;;;;18.63;100.00;98786.28;2087833;28;20441;-75
2021/07/28 02:04:05;;;;;;;33.63;30.40;;;;;;;18.57;100.00;98785.00;2088675;28;20279;-75
2021/07/28 02:05:07;;;;;;;33.00;30.00;;;;;;;18.50;100.00;98782.94;2088638;28;20983;-75
2021/07/28 02:06:08;;;;;;;33.57;30.27;;;;;;;18.46;100.00;98792.88;2088146;28;20230;-74
2021/07/28 02:07:10;;;;;;;54.00;30.50;;;;;;;18.42;100.00;98793.94;2087758;28;20975;-75
2021/07/28 02:08:12;;;;;;;34.33;30.93;;;;;;;18.39;100.00;98792.75;2087963;28;20247;-75
2021/07/28 02:09:14;;;;;;;34.23;30.83;;;;;;;18.34;100.00;98801.13;2087724;28;20868;-75
2021/07/28 02:10:16;;;;;;;35.37;30.37;;;;;;;18.29;100.00;98798.69;2079366;28;20879;-75
2021/07/28 02:11:18;;;;;;;34.80;31.20;;;;;;;18.36;100.00;98796.94;2088020;28;20785;-74
2021/07/28 02:12:18;;;;;;;34.83;30.97;;;;;;;18.35;100.00;98795.38;2087858;28;20952;-75
2021/07/28 02:13:21;;;;;;;35.87;32.23;;;;;;;18.37;100.00;98803.13;2087934;28;20784;-75
2021/07/28 02:14:21;;;;;;;37.13;33.27;;;;;;;18.36;100.00;98805.03;2087600;28;20223;-74
2021/07/28 02:15:23;;;;;;;35.00;31.60;;;;;;;18.34;100.00;98807.31;2087762;28;20457;-75
2021/07/28 02:16:24;;;;;;;33.93;30.53;;;;;;;18.35;100.00;98808.09;2087920;28;20260;-75
2021/07/28 02:17:26;;;;;;;35.27;31.87;;;;;;;18.37;100.00;98813.94;2087742;28;20452;-74
2021/07/28 02:18:26;;;;;;;35.10;31.60;;;;;;;18.38;100.00;98815.50;2087859;28;20253;-75
2021/07/28 02:19:28;;;;;;;36.13;32.37;;;;;;;18.35;100.00;98806.19;2088530;28;20453;-75
2021/07/28 02:20:29;;;;;;;36.90;33.20;;;;;;;18.34;100.00;98807.31;2088502;28;20277;-75
2021/07/28 02:21:30;;;;;;;36.10;32.57;;;;;;;18.35;100.00;98808.88;2088040;28;20927;-75
2021/07/28 02:22:31;;;;;;;37.97;31.93;;;;;;;18.37;100.00;98808.53;2079835;28;20541;-75
2021/07/28 02:23:33;;;;;;;36.47;32.83;;;;;;;18.36;100.00;98809.66;2087800;28;20456;-75
2021/07/28 02:24:33;;;;;;;37.67;34.07;;;;;;;18.36;100.00;98809.66;2088638;28;20271;-75
2021/07/28 02:25:36;;;;;;;38.43;34.30;;;;;;;18.34;100.00;98807.31;2088670;28;20453;-75
2021/07/28 02:26:37;;;;;;;38.53;34.37;;;;;;;18.36;100.00;98809.66;2088305;28;20227;-74
2021/07/28 02:27:38;;;;;;;36.43;32.83;;;;;;;18.36;100.00;98799.63;2088790;28;20457;-74
2021/07/28 02:28:40;;;;;;;37.00;33.23;;;;;;;18.38;100.00;98791.19;2088604;28;20250;-74
2021/07/28 02:29:41;;;;;;;37.07;33.50;;;;;;;18.39;100.00;98792.75;2088463;28;20552;-75
2021/07/28 02:30:42;;;;;;;36.47;32.83;;;;;;;18.39;100.00;98800.84;2088560;28;20460;-75
2021/07/28 02:31:43;;;;;;;36.00;32.47;;;;;;;18.39;100.00;98797.34;2088449;28;20445;-75
2021/07/28 02:32:45;;;;;;;37.33;33.83;;;;;;;18.37;100.00;98795.03;2087731;28;20280;-75
2021/07/28 02:33:46;;;;;;;37.27;33.83;;;;;;;18.34;100.00;98795.75;2087903;28;20483;-75
2021/07/28 02:34:47;;;;;;;37.33;33.83;;;;;;;18.30;100.00;98789.47;2088597;28;20473;-75
2021/07/28 02:35:48;;;;;;;37.40;33.93;;;;;;;18.28;100.00;98787.13;2087844;28;20454;-75
2021/07/28 02:36:49;;;;;;;37.87;34.00;;;;;;;18.32;100.00;98792.59;2079518;28;20253;-75
2021/07/28 02:37:50;;;;;;;37.33;33.80;;;;;;;18.41;100.00;98784.28;2087791;28;20508;-75
2021/07/28 02:38:51;;;;;;;35.00;31.87;;;;;;;18.45;100.00;98790.56;2087884;28;20225;-75
2021/07/28 02:39:52;;;;;;;37.77;33.87;;;;;;;18.52;100.00;98788.00;2088107;28;20472;-74
2021/07/28 02:40:54;;;;;;;35.33;32.23;;;;;;;18.48;100.00;98793.31;2087525;28;20226;-74
2021/07/28 02:41:56;;;;;;;34.83;31.60;;;;;;;18.48;100.00;98782.50;2087838;28;20536;-75
2021/07/28 02:42:57;;;;;;;37.70;34.27;;;;;;;18.51;100.00;98787.22;2087599;28;20504;-75
2021/07/28 02:43:58;;;;;;;35.43;32.10;;;;;;;18.56;100.00;98780.72;2079479;28;20447;-74
2021/07/28 02:44:59;;;;;;;36.40;32.60;;;;;;;18.63;100.00;98787.06;2079540;28;20310;-75
2021/07/28 02:46:00;;;;;;;35.10;32.03;;;;;;;18.74;100.00;98787.31;2087939;28;20457;-75
2021/07/28 02:47:01;;;;;;;34.50;31.30;;;;;;;18.69;100.00;98784.13;2088477;28;20222;-75
2021/07/28 02:48:06;;;;;;;35.27;31.87;;;;;;;18.66;100.00;98779.41;2089919;28;20533;-74
2021/07/28 02:49:06;;;;;;;35.53;32.27;;;;;;;18.57;100.00;98783.06;2088930;28;20233;-74
2021/07/28 02:50:09;;;;;;;35.10;31.57;;;;;;;18.63;100.00;98780.88;2089375;28;20544;-74
2021/07/28 02:51:09;;;;;;;34.43;31.13;;;;;;;18.62;100.00;98779.31;2090023;28;20230;-75
2021/07/28 02:52:11;;;;;;;35.93;32.50;;;;;;;18.55;100.00;98785.34;2090086;28;20441;-74
2021/07/28 02:53:11;;;;;;;35.67;31.80;;;;;;;18.59;100.00;98782.72;2090125;28;20669;-74
2021/07/28 02:54:13;;;;;;;37.23;33.43;;;;;;;18.57;100.00;98785.00;2089951;28;20449;-75
2021/07/28 02:55:14;;;;;;;37.57;33.97;;;;;;;18.58;100.00;98789.25;2090078;28;20227;-75
2021/07/28 02:56:17;;;;;;;39.77;35.70;;;;;;;18.60;100.00;98787.78;2090106;28;20496;-75
2021/07/28 02:57:18;;;;;;;39.73;36.00;;;;;;;18.55;100.00;98788.06;2090011;28;20457;-75
2021/07/28 02:58:19;;;;;;;38.77;34.77;;;;;;;18.48;100.00;98787.91;2090258;28;20456;-74
2021/07/28 02:59:20;;;;;;;38.47;34.40;;;;;;;18.41;100.00;98787.75;2089203;28;20693;-75
2021/07/28 03:00:21;;;;;;;38.90;34.37;;;;;;;18.36;100.00;98798.84;2081255;28;20909;-75
2021/07/28 03:01:22;;;;;;;38.93;34.77;;;;;;;18.32;100.00;98797.97;2088926;28;20234;-74
2021/07/28 03:02:24;;;;;;;45.47;37.57;;;;;;;18.28;100.00;98800.63;2089448;28;20453;-74
2021/07/28 03:03:24;;;;;;;39.87;34.73;;;;;;;18.30;100.00;98795.66;2089315;28;20245;-75
2021/07/28 03:04:26;;;;;;;40.73;35.10;;;;;;;18.40;100.00;98805.09;2090021;28;20449;-74
2021/07/28 03:05:26;;;;;;;37.93;33.83;;;;;;;18.45;100.00;98802.13;2090039;28;20242;-75
2021/07/28 03:06:28;;;;;;;39.13;34.97;;;;;;;18.45;100.00;98799.44;2090086;28;20449;-74
2021/07/28 03:07:28;;;;;;;38.37;34.37;;;;;;;18.57;100.00;98804.69;2090053;28;20222;-75
2021/07/28 03:08:30;;;;;;;37.50;33.17;;;;;;;18.59;100.00;98802.44;2090085;28;20451;-75
2021/07/28 03:09:31;;;;;;;36.23;32.83;;;;;;;18.59;100.00;98809.75;2090026;28;20234;-75
2021/07/28 03:10:32;;;;;;;38.77;34.63;;;;;;;18.60;100.00;98809.41;2089753;28;20456;-75
2021/07/28 03:11:34;;;;;;;37.00;33.30;;;;;;;18.73;100.00;98806.59;2090035;28;20254;-75
2021/07/28 03:12:36;;;;;;;36.83;33.07;;;;;;;18.84;100.00;98802.16;2089965;28;20445;-75
2021/07/28 03:13:36;;;;;;;37.33;33.53;;;;;;;18.89;100.00;98805.38;2089991;28;20819;-75
2021/07/28 03:14:38;;;;;;;38.73;34.63;;;;;;;18.86;100.00;98799.91;2089791;28;20484;-74
2021/07/28 03:15:38;;;;;;;38.63;34.67;;;;;;;18.77;100.00;98792.00;2089883;28;20238;-74
2021/07/28 03:16:40;;;;;;;37.10;33.30;;;;;;;18.73;100.00;98793.06;2089788;28;20528;-75
2021/07/28 03:17:41;;;;;;;37.47;33.43;;;;;;;18.73;100.00;98793.06;2089784;28;20241;-75
2021/07/28 03:18:42;;;;;;;37.50;32.00;;;;;;;18.69;100.00;98789.53;2089903;28;21024;-75
2021/07/28 03:19:43;;;;;;;39.83;35.63;;;;;;;18.66;100.00;98795.63;2089756;28;20689;-75
2021/07/28 03:20:45;;;;;;;38.57;33.50;;;;;;;18.73;100.00;98801.19;2089295;28;20453;-75
2021/07/28 03:21:48;;;;;;;37.13;33.50;;;;;;;18.85;100.00;98809.13;2089178;28;20229;-75
2021/07/28 03:22:50;;;;;;;39.07;33.93;;;;;;;18.94;100.00;98807.00;2089009;28;20484;-75
2021/07/28 03:23:50;;;;;;;37.77;33.90;;;;;;;19.03;100.00;98809.50;2089204;28;21025;-75
2021/07/28 03:24:52;;;;;;;46.37;35.23;;;;;;;19.04;100.00;98817.25;2088932;28;20854;-75
2021/07/28 03:25:53;;;;;;;37.73;33.73;;;;;;;18.96;100.00;98810.13;2088719;28;20589;-74
2021/07/28 03:26:56;;;;;;;39.73;35.53;;;;;;;18.90;100.00;98811.56;2089655;28;20460;-75
2021/07/28 03:27:57;;;;;;;40.57;36.43;;;;;;;18.85;100.00;98803.72;2089945;28;20226;-75
2021/07/28 03:28:58;;;;;;;38.47;34.37;;;;;;;18.88;100.00;98808.44;2089831;28;20540;-76
2021/07/28 03:29:59;;;;;;;42.27;37.23;;;;;;;19.05;100.00;98812.63;2089838;28;20226;-74
2021/07/28 03:31:00;;;;;;;39.40;34.87;;;;;;;19.12;100.00;98816.25;2089838;28;20448;-74
2021/07/28 03:32:01;;;;;;;48.53;36.70;;;;;;;19.17;100.00;98820.56;2089723;28;20219;-74
2021/07/28 03:33:03;;;;;;;40.30;35.30;;;;;;;19.19;100.00;98829.09;2089868;28;20452;-75
2021/07/28 03:34:03;;;;;;;39.37;34.50;;;;;;;19.22;100.00;98819.50;2089793;28;20301;-75
2021/07/28 03:35:05;;;;;;;41.50;36.93;;;;;;;19.27;100.00;98824.59;2089796;28;20445;-75
2021/07/28 03:36:07;;;;;;;40.57;36.27;;;;;;;19.27;100.00;98828.06;2088917;28;20225;-75
2021/07/28 03:37:07;;;;;;;41.50;37.03;;;;;;;19.29;100.00;98833.16;2080336;28;20878;-74
2021/07/28 03:38:09;;;;;;;38.97;34.80;;;;;;;19.28;100.00;98834.25;2080766;28;20434;-75
2021/07/28 03:39:10;;;;;;;48.33;37.30;;;;;;;19.37;100.00;98829.41;2080775;28;20716;-76
2021/07/28 03:40:12;;;;;;;47.63;38.53;;;;;;;19.42;100.00;98848.06;2088885;28;20850;-76
2021/07/28 03:41:13;;;;;;;55.13;41.23;;;;;;;19.41;100.00;98846.50;2088759;28;20242;-76
2021/07/28 03:42:16;;;;;;;34.07;30.43;;;;;;;19.52;100.00;98817.69;2088952;28;20438;-74
2021/07/28 03:43:16;;;;;;;31.07;28.07;;;;;;;19.31;100.00;98785.66;2089216;28;20223;-74
2021/07/28 03:44:18;;;;;;;32.07;28.77;;;;;;;19.09;100.00;98778.28;2080743;28;20447;-75
2021/07/28 03:45:19;;;;;;;33.03;29.80;;;;;;;18.89;100.00;98778.34;2089032;28;20222;-75
2021/07/28 03:46:20;;;;;;;37.10;33.60;;;;;;;18.83;100.00;98787.09;2089666;28;20502;-75
2021/07/28 03:47:21;;;;;;;40.07;34.30;;;;;;;18.80;100.00;98790.50;2089711;28;20215;-75
2021/07/28 03:48:22;;;;;;;37.53;34.07;;;;;;;18.69;100.00;98782.19;2089361;28;20975;-74
2021/07/28 03:49:23;;;;;;;36.10;32.33;;;;;;;18.98;100.00;98785.44;2088773;28;20681;-74
2021/07/28 03:50:25;;;;;;;36.10;32.67;;;;;;;19.05;100.00;98778.25;2080515;28;20815;-74
2021/07/28 03:51:25;;;;;;;35.03;31.40;;;;;;;19.00;100.00;98778.53;2080963;28;20577;-74
2021/07/28 03:52:27;;;;;;;35.10;31.50;;;;;;;19.31;100.00;98760.53;2088897;28;20484;-74
2021/07/28 03:53:28;;;;;;;38.43;33.13;;;;;;;19.39;100.00;98751.38;2088806;28;20223;-74
2021/07/28 03:54:29;;;;;;;32.37;29.43;;;;;;;19.86;100.00;98740.13;2080572;28;20456;-74
2021/07/28 03:55:30;;;;;;;33.63;29.63;;;;;;;19.97;100.00;98726.75;2080614;28;20215;-74
2021/07/28 03:56:31;;;;;;;33.43;30.43;;;;;;;19.95;100.00;98719.00;2088985;28;20457;-74
2021/07/28 03:57:33;;;;;;;33.70;30.70;;;;;;;19.94;100.00;98713.94;2089612;28;20219;-74
2021/07/28 03:58:35;;;;;;;33.30;30.03;;;;;;;19.87;100.00;98716.53;2088568;28;20971;-74
2021/07/28 03:59:36;;;;;;;31.83;27.70;;;;;;;19.79;100.00;98720.31;2088824;28;20872;-74
2021/07/28 04:00:37;;;;;;;31.30;27.93;;;;;;;19.68;100.00;98714.75;2079916;28;20462;-74
2021/07/28 04:01:38;;;;;;;30.90;28.17;;;;;;;19.73;100.00;98709.03;2088679;28;20301;-73
2021/07/28 04:02:39;;;;;;;30.43;27.83;;;;;;;19.62;100.00;98716.97;2088577;28;20956;-74
2021/07/28 04:03:40;;;;;;;30.87;28.10;;;;;;;19.52;100.00;98722.19;2080413;28;20681;-75
2021/07/28 04:04:42;;;;;;;31.03;28.00;;;;;;;19.42;100.00;98734.41;2088798;28;20877;-74
2021/07/28 04:05:42;;;;;;;30.87;27.77;;;;;;;19.31;100.00;98742.38;2089590;28;20695;-74
2021/07/28 04:06:44;;;;;;;32.73;29.50;;;;;;;19.23;100.00;98745.31;2089591;28;20869;-75
2021/07/28 04:07:45;;;;;;;35.70;31.93;;;;;;;19.38;100.00;98749.81;2088919;28;20226;-74
2021/07/28 04:08:47;;;;;;;35.33;31.83;;;;;;;19.36;100.00;98755.56;2088815;28;20978;-74
2021/07/28 04:09:47;;;;;;;33.47;29.90;;;;;;;19.33;100.00;98764.41;2089160;28;20488;-74
2021/07/28 04:10:49;;;;;;;33.87;30.23;;;;;;;19.28;100.00;98766.63;2089481;28;20460;-74
2021/07/28 04:11:50;;;;;;;34.03;30.53;;;;;;;19.23;100.00;98769.66;2088721;28;20238;-74
2021/07/28 04:12:53;;;;;;;36.17;31.97;;;;;;;19.14;100.00;98770.69;2088748;28;20458;-74
2021/07/28 04:13:53;;;;;;;38.07;31.63;;;;;;;19.07;100.00;98780.59;2089217;28;20588;-74
2021/07/28 04:14:55;;;;;;;39.20;32.20;;;;;;;19.00;100.00;98778.53;2089522;28;20442;-74
2021/07/28 04:15:55;;;;;;;38.10;34.40;;;;;;;18.93;100.00;98775.69;2089430;28;20229;-74
2021/07/28 04:16:57;;;;;;;38.87;34.83;;;;;;;18.89;100.00;98778.34;2088560;28;20453;-74
2021/07/28 04:17:57;;;;;;;41.83;36.23;;;;;;;18.89;100.00;98786.44;2088496;28;20222;-74
2021/07/28 04:18:59;;;;;;;41.37;36.93;;;;;;;18.87;100.00;98786.03;2089494;28;20524;-74
2021/07/28 04:20:00;;;;;;;39.30;35.00;;;;;;;18.84;100.00;98785.94;2089158;28;20222;-74
2021/07/28 04:21:01;;;;;;;40.67;34.57;;;;;;;18.82;100.00;98789.00;2089382;28;20465;-75
2021/07/28 04:22:02;;;;;;;39.20;33.67;;;;;;;18.78;100.00;98790.09;2089360;28;20238;-74
2021/07/28 04:23:04;;;;;;;39.60;35.30;;;;;;;18.76;100.00;98779.59;2088412;28;21009;-74
2021/07/28 04:24:05;;;;;;;44.37;35.67;;;;;;;18.77;100.00;98788.53;2088523;28;20231;-74
2021/07/28 04:25:07;;;;;;;39.83;34.73;;;;;;;18.76;100.00;98792.34;2089440;28;20468;-74
2021/07/28 04:26:08;;;;;;;42.10;35.07;;;;;;;18.76;100.00;98795.03;2088144;28;20479;-74
2021/07/28 04:27:10;;;;;;;42.97;37.30;;;;;;;18.76;100.00;98800.44;2080504;28;20462;-74
2021/07/28 04:28:12;;;;;;;41.27;35.90;;;;;;;18.77;100.00;98799.34;2088600;28;20249;-74
2021/07/28 04:29:13;;;;;;;41.17;36.77;;;;;;;18.76;100.00;98790.41;2088438;28;20461;-74
2021/07/28 04:30:14;;;;;;;41.83;37.30;;;;;;;18.76;100.00;98795.03;2088521;28;20927;-74
2021/07/28 04:31:16;;;;;;;39.83;34.87;;;;;;;18.75;100.00;98794.28;2088413;28;20464;-74
2021/07/28 04:32:16;;;;;;;50.67;37.80;;;;;;;18.76;100.00;98795.03;2088420;28;20464;-74
2021/07/28 04:33:18;;;;;;;44.10;38.37;;;;;;;18.75;100.00;98788.09;2088449;28;20529;-74
2021/07/28 04:34:20;;;;;;;43.93;36.43;;;;;;;18.77;100.00;98786.59;2088584;28;20219;-74
2021/07/28 04:35:22;;;;;;;42.03;36.27;;;;;;;18.78;100.00;98798.19;2089323;28;20445;-74
2021/07/28 04:36:22;;;;;;;48.63;37.30;;;;;;;18.77;100.00;98781.19;2088046;28;20446;-74
2021/07/28 04:37:24;;;;;;;44.50;38.40;;;;;;;18.79;100.00;98783.53;2080502;28;20584;-74
2021/07/28 04:38:25;;;;;;;44.83;37.87;;;;;;;18.84;100.00;98791.34;2088314;28;20305;-74
2021/07/28 04:39:26;;;;;;;42.67;37.13;;;;;;;18.85;100.00;98782.91;2089082;28;20457;-74
2021/07/28 04:40:27;;;;;;;49.53;38.37;;;;;;;18.83;100.00;98785.16;2088582;28;20230;-74
2021/07/28 04:41:28;;;;;;;42.43;37.17;;;;;;;18.84;100.00;98784.00;2088517;28;20442;-75
2021/07/28 04:42:29;;;;;;;42.03;37.47;;;;;;;18.90;100.00;98784.50;2089252;28;20693;-74